createdAt,value
2018-03-25T00:03:03.512Z,98.60
2018-03-25T00:07:37.864Z,98.50
2018-03-25T00:12:12.272Z,98.50
2018-03-25T00:16:45.915Z,98.40
2018-03-25T00:21:19.425Z,98.80
2018-03-25T00:25:53.350Z,99.10
2018-03-25T00:30:26.858Z,99.10
2018-03-25T00:35:00.310Z,99.30
2018-03-25T00:39:34.015Z,99.50
2018-03-25T00:44:07.635Z,99.40
2018-03-25T00:48:42.086Z,99.00
2018-03-25T00:53:15.595Z,98.60
2018-03-25T00:57:49.112Z,98.90
2018-03-25T01:02:22.779Z,98.90
2018-03-25T01:06:56.218Z,99.10
2018-03-25T01:11:29.648Z,99.40
2018-03-25T01:16:10.728Z,99.50
2018-03-25T01:20:44.313Z,99.60
2018-03-25T01:25:18.256Z,98.90
2018-03-25T01:29:51.758Z,98.70
2018-03-25T01:34:25.310Z,98.70
2018-03-25T01:38:58.873Z,98.70
2018-03-25T01:43:33.009Z,98.90
2018-03-25T01:48:07.137Z,99.60
2018-03-25T01:52:41.371Z,99.90
2018-03-25T01:57:14.876Z,99.90
2018-03-25T02:01:49.239Z,99.90
2018-03-25T02:06:23.234Z,99.90
2018-03-25T02:10:58.233Z,99.90
2018-03-25T02:15:31.532Z,99.90
2018-03-25T02:20:05.218Z,99.90
2018-03-25T02:24:39.210Z,99.70
2018-03-25T02:29:12.999Z,99.50
2018-03-25T02:33:46.488Z,99.30
2018-03-25T02:38:20.109Z,99.80
2018-03-25T02:42:54.269Z,99.70
2018-03-25T02:47:28.183Z,99.90
2018-03-25T02:52:01.890Z,99.90
2018-03-25T02:56:35.381Z,99.70
2018-03-25T03:01:09.063Z,99.70
2018-03-25T03:05:42.711Z,99.80
2018-03-25T03:10:16.123Z,99.90
2018-03-25T03:14:49.669Z,99.90
2018-03-25T03:19:23.970Z,99.90
2018-03-25T03:23:57.540Z,99.90
2018-03-25T03:28:31.101Z,99.90
2018-03-25T03:33:04.439Z,99.90
2018-03-25T03:37:38.649Z,99.90
2018-03-25T03:42:12.267Z,99.70
2018-03-25T03:46:45.581Z,99.60
2018-03-25T03:51:19.059Z,99.90
2018-03-25T03:55:53.180Z,99.90
2018-03-25T04:00:26.576Z,99.90
2018-03-25T04:05:00.881Z,99.90
2018-03-25T04:09:34.373Z,99.90
2018-03-25T04:14:07.773Z,99.90
2018-03-25T04:18:41.820Z,99.90
2018-03-25T04:23:15.104Z,99.90
2018-03-25T04:27:49.949Z,99.90
2018-03-25T04:32:24.183Z,99.80
2018-03-25T04:36:57.830Z,99.80
2018-03-25T04:41:31.213Z,99.70
2018-03-25T04:46:05.254Z,99.60
2018-03-25T04:50:38.711Z,99.50
2018-03-25T04:55:12.089Z,99.70
2018-03-25T04:59:45.404Z,99.90
2018-03-25T05:04:18.647Z,99.90
2018-03-25T05:08:52.623Z,99.90
2018-03-25T05:13:26.037Z,99.90
2018-03-25T05:18:00.247Z,99.90
2018-03-25T05:22:33.554Z,99.90
2018-03-25T05:27:07.707Z,99.90
2018-03-25T05:31:41.780Z,99.90
2018-03-25T05:36:16.673Z,99.90
2018-03-25T05:40:50.954Z,99.90
2018-03-25T05:45:24.507Z,99.90
2018-03-25T05:49:58.954Z,99.90
2018-03-25T05:54:33.115Z,99.90
2018-03-25T05:59:06.755Z,99.90
2018-03-25T06:03:40.309Z,99.90
2018-03-25T06:08:13.937Z,99.90
2018-03-25T06:12:47.431Z,99.90
2018-03-25T06:17:21.228Z,99.90
2018-03-25T06:21:55.304Z,99.50
2018-03-25T06:26:28.999Z,99.10
2018-03-25T06:31:02.560Z,98.80
2018-03-25T06:35:36.140Z,98.20
2018-03-25T06:40:10.190Z,98.00
2018-03-25T06:44:43.869Z,98.00
2018-03-25T06:49:18.044Z,98.00
2018-03-25T06:53:52.307Z,98.00
2018-03-25T06:58:26.354Z,97.50
2018-03-25T07:03:05.703Z,97.40
2018-03-25T07:07:44.965Z,96.90
2018-03-25T07:12:23.945Z,96.70
2018-03-25T07:17:03.051Z,96.20
2018-03-25T07:21:42.356Z,95.90
2018-03-25T07:26:21.666Z,95.20
2018-03-25T07:31:02.242Z,93.20
2018-03-25T07:35:41.298Z,93.00
2018-03-25T07:40:14.908Z,91.30
2018-03-25T07:44:48.787Z,90.10
2018-03-25T07:49:28.055Z,86.80
2018-03-25T07:54:02.651Z,81.30
2018-03-25T07:58:36.687Z,77.30
2018-03-25T08:03:10.051Z,75.30
2018-03-25T08:07:43.759Z,71.80
2018-03-25T08:12:18.081Z,71.60
2018-03-25T08:16:51.599Z,65.00
2018-03-25T08:21:25.241Z,61.30
2018-03-25T08:25:59.041Z,59.40
2018-03-25T08:30:33.274Z,62.20
2018-03-25T08:35:06.876Z,63.00
2018-03-25T08:39:41.185Z,64.10
2018-03-25T08:44:15.558Z,60.30
2018-03-25T08:48:49.158Z,60.30
2018-03-25T08:53:28.418Z,58.40
2018-03-25T08:58:02.951Z,58.60
2018-03-25T09:02:42.088Z,57.50
2018-03-25T09:07:16.838Z,56.50
2018-03-25T09:11:50.252Z,56.50
2018-03-25T09:16:25.109Z,54.60
2018-03-25T09:20:58.521Z,54.60
2018-03-25T09:25:31.916Z,52.90
2018-03-25T09:30:06.178Z,44.70
2018-03-25T09:34:39.757Z,44.60
2018-03-25T09:39:13.929Z,43.40
2018-03-25T09:43:47.213Z,43.30
2018-03-25T09:48:20.614Z,45.90
2018-03-25T09:52:54.052Z,45.40
2018-03-25T09:57:27.532Z,47.40
2018-03-25T10:02:04.632Z,43.50
2018-03-25T10:06:38.105Z,43.40
2018-03-25T10:11:11.507Z,42.80
2018-03-25T10:15:45.492Z,37.00
2018-03-25T10:20:19.758Z,40.40
2018-03-25T10:24:53.384Z,37.60
2018-03-25T10:29:28.589Z,43.10
2018-03-25T10:34:02.829Z,43.00
2018-03-25T10:38:36.149Z,43.00
2018-03-25T10:43:09.586Z,41.80
2018-03-25T10:47:42.992Z,41.30
2018-03-25T10:52:16.402Z,37.00
2018-03-25T10:56:49.826Z,38.50
2018-03-25T11:01:23.968Z,35.20
2018-03-25T11:05:58.126Z,37.80
2018-03-25T11:10:32.412Z,36.50
2018-03-25T11:15:05.469Z,36.40
2018-03-25T11:19:38.852Z,33.00
2018-03-25T11:24:13.835Z,36.60
2018-03-25T11:28:47.497Z,36.50
2018-03-25T11:33:20.839Z,34.10
2018-03-25T11:37:56.110Z,32.50
2018-03-25T11:42:29.954Z,32.90
2018-03-25T11:47:03.542Z,33.10
2018-03-25T11:51:37.060Z,33.30
2018-03-25T11:56:10.988Z,34.00
2018-03-25T12:00:44.498Z,36.10
2018-03-25T12:05:18.476Z,37.60
2018-03-25T12:09:51.869Z,38.80
2018-03-25T12:14:25.753Z,38.50
2018-03-25T12:18:59.265Z,39.40
2018-03-25T12:23:32.890Z,37.90
2018-03-25T12:28:06.268Z,36.30
2018-03-25T12:32:39.834Z,35.60
2018-03-25T12:37:13.366Z,35.00
2018-03-25T12:41:46.665Z,35.00
2018-03-25T12:46:20.038Z,34.40
2018-03-25T12:50:54.375Z,30.50
2018-03-25T12:55:28.512Z,31.00
2018-03-25T13:00:01.839Z,30.90
2018-03-25T13:04:35.264Z,31.50
2018-03-25T13:09:08.934Z,32.70
2018-03-25T13:13:42.559Z,31.10
2018-03-25T13:18:17.349Z,30.00
2018-03-25T13:22:50.751Z,32.20
2018-03-25T13:27:24.075Z,33.60
2018-03-25T13:31:57.965Z,35.30
2018-03-25T13:36:32.062Z,35.60
2018-03-25T13:41:06.145Z,32.10
2018-03-25T13:45:39.451Z,32.00
2018-03-25T13:50:12.875Z,29.90
2018-03-25T13:54:46.237Z,31.30
2018-03-25T13:59:20.354Z,32.30
2018-03-25T14:03:54.416Z,34.80
2018-03-25T14:08:27.738Z,34.80
2018-03-25T14:13:01.135Z,36.20
2018-03-25T14:17:34.788Z,37.80
2018-03-25T14:22:08.170Z,35.50
2018-03-25T14:26:42.220Z,37.10
2018-03-25T14:31:15.678Z,39.80
2018-03-25T14:35:49.805Z,42.10
2018-03-25T14:40:23.817Z,43.10
2018-03-25T14:44:57.503Z,43.10
2018-03-25T14:49:31.083Z,42.20
2018-03-25T14:54:04.360Z,41.10
2018-03-25T14:58:38.972Z,40.30
2018-03-25T15:03:12.264Z,40.80
2018-03-25T15:07:45.560Z,40.70
2018-03-25T15:12:19.531Z,43.10
2018-03-25T15:16:52.832Z,42.20
2018-03-25T15:21:26.790Z,43.10
2018-03-25T15:26:01.262Z,43.30
2018-03-25T15:30:34.869Z,43.30
2018-03-25T15:35:08.176Z,44.20
2018-03-25T15:39:41.446Z,43.70
2018-03-25T15:44:14.973Z,44.40
2018-03-25T15:48:48.281Z,43.80
2018-03-25T15:53:22.408Z,44.70
2018-03-25T15:57:56.466Z,44.50
2018-03-25T16:02:29.892Z,44.50
2018-03-25T16:07:03.186Z,45.40
2018-03-25T16:11:36.668Z,45.30
2018-03-25T16:16:11.651Z,46.90
2018-03-25T16:20:45.055Z,46.80
2018-03-25T16:25:18.440Z,47.40
2018-03-25T16:29:52.473Z,47.20
2018-03-25T16:34:26.518Z,47.80
2018-03-25T16:38:59.904Z,47.70
2018-03-25T16:43:34.348Z,48.50
2018-03-25T16:48:07.628Z,48.50
2018-03-25T16:52:40.897Z,49.20
2018-03-25T16:57:14.305Z,49.00
2018-03-25T17:01:48.264Z,49.30
2018-03-25T17:06:21.538Z,50.20
2018-03-25T17:10:55.139Z,49.80
2018-03-25T17:15:28.420Z,50.00
2018-03-25T17:20:02.555Z,51.40
2018-03-25T17:24:36.615Z,52.10
2018-03-25T17:29:10.249Z,52.00
2018-03-25T17:33:44.232Z,53.80
2018-03-25T17:38:17.636Z,54.90
2018-03-25T17:42:51.878Z,60.20
2018-03-25T17:47:25.378Z,60.10
2018-03-25T17:51:59.424Z,66.90
2018-03-25T17:56:32.700Z,66.80
2018-03-25T18:01:07.212Z,72.00
2018-03-25T18:05:40.700Z,71.80
2018-03-25T18:10:14.004Z,74.00
2018-03-25T18:14:47.416Z,75.20
2018-03-25T18:19:20.706Z,78.20
2018-03-25T18:23:54.725Z,80.00
2018-03-25T18:28:28.754Z,81.80
2018-03-25T18:33:02.191Z,81.70
2018-03-25T18:37:35.675Z,81.90
2018-03-25T18:42:08.989Z,81.80
2018-03-25T18:46:42.222Z,82.30
2018-03-25T18:51:15.521Z,83.60
2018-03-25T18:55:48.830Z,84.60
2018-03-25T19:00:22.217Z,87.20
2018-03-25T19:04:56.448Z,88.00
2018-03-25T19:09:31.183Z,87.40
2018-03-25T19:14:05.234Z,87.90
2018-03-25T19:18:38.861Z,87.80
2018-03-25T19:23:12.145Z,88.20
2018-03-25T19:27:46.148Z,88.30
2018-03-25T19:32:19.449Z,88.30
2018-03-25T19:36:53.602Z,87.60
2018-03-25T19:41:28.702Z,89.90
2018-03-25T19:46:02.061Z,89.80
2018-03-25T19:50:36.192Z,88.70
2018-03-25T19:55:10.528Z,89.20
2018-03-25T19:59:43.842Z,89.20
2018-03-25T20:04:18.166Z,88.40
2018-03-25T20:08:52.506Z,88.40
2018-03-25T20:13:26.016Z,88.30
2018-03-25T20:18:00.704Z,89.30
2018-03-25T20:22:34.181Z,89.30
2018-03-25T20:27:08.718Z,90.40
2018-03-25T20:31:42.344Z,90.10
2018-03-25T20:36:15.689Z,90.10
2018-03-25T20:40:49.109Z,89.90
2018-03-25T20:45:22.767Z,89.60
2018-03-25T20:49:56.852Z,89.40
2018-03-25T20:54:30.924Z,90.00
2018-03-25T20:59:04.236Z,89.90
2018-03-25T21:03:37.639Z,90.10
2018-03-25T21:08:11.973Z,89.00
2018-03-25T21:12:45.888Z,89.00
2018-03-25T21:17:19.964Z,91.10
2018-03-25T21:21:54.768Z,91.10
2018-03-25T21:26:28.770Z,91.00
2018-03-25T21:31:02.142Z,90.60
2018-03-25T21:35:35.716Z,90.50
2018-03-25T21:40:09.845Z,91.00
2018-03-25T21:44:43.909Z,91.30
2018-03-25T21:49:17.878Z,91.30
2018-03-25T21:53:51.815Z,91.50
2018-03-25T21:58:25.866Z,92.50
2018-03-25T22:02:59.177Z,92.20
2018-03-25T22:07:32.564Z,92.10
2018-03-25T22:12:06.633Z,91.50
2018-03-25T22:16:39.904Z,91.50
2018-03-25T22:21:14.260Z,91.40
2018-03-25T22:25:48.560Z,91.40
2018-03-25T22:30:22.862Z,92.10
2018-03-25T22:34:56.821Z,92.00
2018-03-25T22:39:30.862Z,92.70
2018-03-25T22:44:04.924Z,92.70
2018-03-25T22:48:38.396Z,92.70
2018-03-25T22:53:13.336Z,92.20
2018-03-25T22:57:47.373Z,92.60
2018-03-25T23:02:20.682Z,92.60
2018-03-25T23:06:54.428Z,92.80
2018-03-25T23:11:28.035Z,93.30
2018-03-25T23:16:01.735Z,93.10
2018-03-25T23:20:35.830Z,93.60
2018-03-25T23:25:09.165Z,93.50
2018-03-25T23:29:43.211Z,94.00
2018-03-25T23:34:16.472Z,93.90
2018-03-25T23:38:50.063Z,94.30
2018-03-25T23:43:23.328Z,94.80
2018-03-25T23:47:58.270Z,94.80
2018-03-25T23:52:32.279Z,94.60
2018-03-25T23:57:06.235Z,94.60
